createdAt,value
2023-03-18T00:00:46.850Z,63.11
2023-03-18T00:03:14.698Z,63.55
2023-03-18T00:05:42.922Z,63.05
2023-03-18T00:08:10.980Z,63.18
2023-03-18T00:10:39.732Z,63.67
2023-03-18T00:13:07.686Z,63.66
2023-03-18T00:15:37.743Z,63.69
2023-03-18T00:18:06.543Z,63.63
2023-03-18T00:20:39.425Z,63.64
2023-03-18T00:23:08.774Z,63.20
2023-03-18T00:25:37.119Z,63.33
2023-03-18T00:28:06.566Z,63.01
2023-03-18T00:30:38.563Z,63.65
2023-03-18T00:33:07.107Z,63.04
2023-03-18T00:35:36.362Z,63.72
2023-03-18T00:38:07.671Z,63.54
2023-03-18T00:40:53.225Z,63.46
2023-03-18T00:43:22.708Z,63.83
2023-03-18T00:45:51.913Z,63.72
2023-03-18T00:48:19.708Z,63.60
2023-03-18T00:50:47.891Z,63.22
2023-03-18T00:53:15.689Z,63.38
2023-03-18T00:55:44.199Z,63.93
2023-03-18T00:58:12.736Z,63.52
2023-03-18T01:00:41.644Z,63.32
2023-03-18T01:03:10.844Z,63.41
2023-03-18T01:05:39.709Z,63.45
2023-03-18T01:08:07.893Z,63.75
2023-03-18T01:10:35.740Z,64.05
2023-03-18T01:13:03.514Z,63.73
2023-03-18T01:15:31.382Z,63.51
2023-03-18T01:17:59.693Z,63.49
2023-03-18T01:20:29.380Z,63.45
2023-03-18T01:22:58.583Z,63.49
2023-03-18T01:25:27.291Z,63.51
2023-03-18T01:27:55.684Z,63.55
2023-03-18T01:30:24.648Z,63.91
2023-03-18T01:32:52.585Z,63.57
2023-03-18T01:35:20.557Z,63.94
2023-03-18T01:37:49.733Z,63.68
2023-03-18T01:40:18.098Z,63.83
2023-03-18T01:42:49.731Z,63.71
2023-03-18T01:45:21.873Z,63.81
2023-03-18T01:47:50.826Z,63.65
2023-03-18T01:50:21.945Z,63.67
2023-03-18T01:52:55.556Z,63.96
2023-03-18T01:55:26.887Z,64.06
2023-03-18T01:57:55.627Z,64.11
2023-03-18T02:00:23.647Z,63.74
2023-03-18T02:02:53.672Z,64.09
2023-03-18T02:07:53.724Z,63.96
2023-03-18T02:10:24.125Z,63.71
2023-03-18T02:12:58.133Z,63.61
2023-03-18T02:15:27.806Z,63.46
2023-03-18T02:18:00.047Z,63.98
2023-03-18T02:20:46.349Z,64.40
2023-03-18T02:23:23.583Z,64.13
2023-03-18T02:25:57.343Z,64.17
2023-03-18T02:28:29.577Z,63.85
2023-03-18T02:31:01.373Z,63.67
2023-03-18T02:33:34.743Z,64.03
2023-03-18T02:36:05.986Z,63.90
2023-03-18T02:38:34.182Z,64.11
2023-03-18T02:41:02.075Z,63.80
2023-03-18T02:43:33.636Z,63.64
2023-03-18T02:46:18.448Z,63.82
2023-03-18T02:48:47.722Z,63.64
2023-03-18T02:51:17.195Z,63.77
2023-03-18T02:53:45.944Z,63.90
2023-03-18T02:56:14.043Z,63.70
2023-03-18T02:58:44.217Z,63.96
2023-03-18T03:01:12.532Z,63.68
2023-03-18T03:03:41.067Z,63.81
2023-03-18T03:06:09.672Z,63.85
2023-03-18T03:08:37.848Z,63.79
2023-03-18T03:11:06.422Z,63.79
2023-03-18T03:13:34.141Z,63.87
2023-03-18T03:16:03.871Z,63.88
2023-03-18T03:18:31.697Z,63.99
2023-03-18T03:20:59.696Z,63.81
2023-03-18T03:23:27.955Z,63.99
2023-03-18T03:25:56.210Z,64.07
2023-03-18T03:28:24.246Z,63.82
2023-03-18T03:30:52.294Z,64.07
2023-03-18T03:33:21.783Z,63.97
2023-03-18T03:35:49.615Z,63.88
2023-03-18T03:38:17.582Z,64.28
2023-03-18T03:40:45.745Z,64.13
2023-03-18T03:43:14.029Z,64.24
2023-03-18T03:45:42.059Z,64.18
2023-03-18T03:48:10.544Z,64.15
2023-03-18T03:50:40.410Z,63.84
2023-03-18T03:53:08.155Z,64.34
2023-03-18T03:55:35.997Z,64.17
2023-03-18T03:58:04.437Z,64.09
2023-03-18T04:00:33.237Z,64.22
2023-03-18T04:03:01.354Z,64.28
2023-03-18T04:05:29.654Z,64.12
2023-03-18T04:07:59.989Z,64.33
2023-03-18T04:10:29.102Z,64.37
2023-03-18T04:12:56.930Z,64.34
2023-03-18T04:15:24.627Z,64.44
2023-03-18T04:17:52.367Z,64.23
2023-03-18T04:20:20.896Z,64.38
2023-03-18T04:22:49.279Z,64.60
2023-03-18T04:25:18.770Z,64.43
2023-03-18T04:27:46.746Z,64.43
2023-03-18T04:30:15.335Z,64.58
2023-03-18T04:32:43.235Z,64.40
2023-03-18T04:35:11.900Z,64.76
2023-03-18T04:37:39.622Z,64.86
2023-03-18T04:40:09.020Z,64.53
2023-03-18T04:42:38.568Z,64.86
2023-03-18T04:45:08.139Z,64.94
2023-03-18T04:47:36.046Z,64.68
2023-03-18T04:50:04.627Z,64.93
2023-03-18T04:52:33.672Z,64.63
2023-03-18T04:55:01.693Z,64.91
2023-03-18T04:57:29.654Z,64.75
2023-03-18T04:59:59.121Z,65.01
2023-03-18T05:02:26.891Z,64.97
2023-03-18T05:04:54.647Z,64.92
2023-03-18T05:07:22.659Z,65.03
2023-03-18T05:09:50.570Z,65.06
2023-03-18T05:12:18.365Z,65.04
2023-03-18T05:14:46.372Z,65.06
2023-03-18T05:17:16.874Z,65.10
2023-03-18T05:19:46.496Z,65.17
2023-03-18T05:22:16.442Z,65.26
2023-03-18T05:24:46.042Z,65.52
2023-03-18T05:27:14.866Z,65.50
2023-03-18T05:29:43.313Z,65.22
2023-03-18T05:32:12.696Z,65.49
2023-03-18T05:34:42.971Z,65.22
2023-03-18T05:37:13.212Z,65.22
2023-03-18T05:39:43.718Z,65.32
2023-03-18T05:42:14.202Z,65.59
2023-03-18T05:44:42.160Z,65.65
2023-03-18T05:47:10.381Z,65.63
2023-03-18T05:49:38.400Z,65.68
2023-03-18T05:52:07.613Z,65.48
2023-03-18T05:54:35.476Z,65.72
2023-03-18T05:57:03.230Z,65.61
2023-03-18T05:59:31.552Z,65.76
2023-03-18T06:01:59.470Z,65.70
2023-03-18T06:04:27.828Z,65.84
2023-03-18T06:06:57.002Z,65.94
2023-03-18T06:09:27.355Z,65.77
2023-03-18T06:11:55.247Z,65.70
2023-03-18T06:14:25.929Z,66.17
2023-03-18T06:16:54.268Z,65.98
2023-03-18T06:19:22.974Z,66.00
2023-03-18T06:21:50.946Z,66.10
2023-03-18T06:24:18.806Z,65.84
2023-03-18T06:26:47.865Z,66.07
2023-03-18T06:29:15.622Z,65.95
2023-03-18T06:31:43.440Z,66.25
2023-03-18T06:34:11.219Z,66.57
2023-03-18T06:36:38.973Z,66.46
2023-03-18T06:39:06.811Z,66.42
2023-03-18T06:41:34.951Z,66.26
2023-03-18T06:44:04.169Z,66.54
2023-03-18T06:46:32.309Z,66.48
2023-03-18T06:49:01.553Z,66.27
2023-03-18T06:51:29.378Z,66.53
2023-03-18T06:53:58.018Z,66.56
2023-03-18T06:56:25.773Z,66.55
2023-03-18T06:58:54.353Z,66.63
2023-03-18T07:01:23.597Z,66.54
2023-03-18T07:03:51.581Z,66.49
2023-03-18T07:06:19.786Z,66.63
2023-03-18T07:08:47.627Z,66.91
2023-03-18T07:11:16.710Z,66.81
2023-03-18T07:13:44.728Z,66.71
2023-03-18T07:16:12.638Z,66.99
2023-03-18T07:18:42.715Z,66.91
2023-03-18T07:21:11.394Z,66.91
2023-03-18T07:23:41.150Z,66.75
2023-03-18T07:26:09.012Z,66.78
2023-03-18T07:28:36.858Z,67.11
2023-03-18T07:31:04.836Z,66.91
2023-03-18T07:33:33.222Z,67.04
2023-03-18T07:36:02.634Z,67.25
2023-03-18T07:38:30.945Z,67.35
2023-03-18T07:40:58.658Z,67.09
2023-03-18T07:43:27.315Z,67.15
2023-03-18T07:45:55.840Z,67.02
2023-03-18T07:48:23.571Z,67.06
2023-03-18T07:50:51.471Z,67.13
2023-03-18T07:53:21.134Z,67.28
2023-03-18T07:55:49.140Z,67.35
2023-03-18T07:58:16.920Z,67.14
2023-03-18T08:00:45.153Z,67.35
2023-03-18T08:03:13.983Z,67.56
2023-03-18T08:05:42.143Z,67.47
2023-03-18T08:08:10.087Z,67.83
2023-03-18T08:10:39.309Z,67.54
2023-03-18T08:13:07.137Z,67.67
2023-03-18T08:15:35.319Z,67.19
2023-03-18T08:18:03.253Z,67.63
2023-03-18T08:20:31.087Z,67.67
2023-03-18T08:22:59.177Z,67.81
2023-03-18T08:25:27.106Z,67.52
2023-03-18T08:27:56.652Z,68.08
2023-03-18T08:30:28.538Z,67.46
2023-03-18T08:32:57.414Z,68.03
2023-03-18T08:35:25.805Z,68.00
2023-03-18T08:37:54.426Z,67.82
2023-03-18T08:40:22.267Z,67.85
2023-03-18T08:42:50.105Z,68.17
2023-03-18T08:45:19.562Z,68.13
2023-03-18T08:47:47.409Z,68.00
2023-03-18T08:50:15.622Z,68.05
2023-03-18T08:52:43.421Z,68.19
2023-03-18T08:55:11.604Z,68.04
2023-03-18T08:57:39.755Z,68.32
2023-03-18T09:00:09.059Z,68.20
2023-03-18T09:02:38.311Z,67.92
2023-03-18T09:05:07.072Z,68.38
2023-03-18T09:07:35.314Z,68.13
2023-03-18T09:10:04.412Z,68.38
2023-03-18T09:12:32.199Z,68.00
2023-03-18T09:15:00.005Z,68.63
2023-03-18T09:17:45.280Z,68.14
2023-03-18T09:20:18.418Z,68.60
2023-03-18T09:22:46.935Z,68.20
2023-03-18T09:25:14.818Z,68.54
2023-03-18T09:27:43.904Z,68.57
2023-03-18T09:30:12.871Z,68.71
2023-03-18T09:32:41.172Z,68.72
2023-03-18T09:35:12.535Z,68.76
2023-03-18T09:37:42.222Z,68.80
2023-03-18T09:40:26.477Z,68.96
2023-03-18T09:43:03.711Z,68.72
2023-03-18T09:45:36.428Z,68.67
2023-03-18T09:48:30.839Z,68.89
2023-03-18T09:51:06.062Z,69.00
2023-03-18T09:53:44.452Z,69.08
2023-03-18T09:56:18.032Z,68.65
2023-03-18T09:58:51.186Z,68.71
2023-03-18T10:01:21.850Z,69.04
2023-03-18T10:03:54.624Z,69.43
2023-03-18T10:06:24.831Z,68.94
2023-03-18T10:09:02.451Z,68.89
2023-03-18T10:11:33.189Z,68.93
2023-03-18T10:14:21.181Z,68.85
2023-03-18T10:16:59.436Z,68.91
2023-03-18T10:19:28.184Z,68.93
2023-03-18T10:22:07.876Z,69.19
2023-03-18T10:24:40.590Z,69.24
2023-03-18T10:27:17.983Z,68.96
2023-03-18T10:29:51.088Z,69.22
2023-03-18T10:32:46.529Z,69.69
2023-03-18T10:35:27.281Z,69.44
2023-03-18T10:38:03.122Z,69.92
2023-03-18T10:40:38.719Z,69.31
2023-03-18T10:43:16.884Z,69.71
2023-03-18T10:45:47.106Z,69.89
2023-03-18T10:48:21.391Z,69.36
2023-03-18T10:51:07.547Z,69.66
2023-03-18T10:53:43.052Z,69.41
2023-03-18T10:56:14.597Z,69.56
2023-03-18T10:58:43.710Z,69.68
2023-03-18T11:01:17.194Z,69.96
2023-03-18T11:03:50.784Z,70.15
2023-03-18T11:06:25.236Z,70.15
2023-03-18T11:09:04.864Z,70.10
2023-03-18T11:11:36.125Z,69.81
2023-03-18T11:14:14.225Z,69.98
2023-03-18T11:16:49.538Z,70.03
2023-03-18T11:19:29.002Z,69.88
2023-03-18T11:22:15.402Z,70.02
2023-03-18T11:24:43.812Z,69.95
2023-03-18T11:27:29.063Z,70.33
2023-03-18T11:30:00.106Z,70.22
2023-03-18T11:32:31.153Z,70.58
2023-03-18T11:35:01.750Z,70.97
2023-03-18T11:37:34.773Z,70.99
2023-03-18T11:40:18.680Z,70.92
2023-03-18T11:42:49.554Z,71.02
2023-03-18T11:45:32.958Z,70.94
2023-03-18T11:48:01.674Z,70.54
2023-03-18T11:50:39.508Z,71.32
2023-03-18T11:53:14.834Z,70.87
2023-03-18T11:55:46.738Z,70.67
2023-03-18T11:58:42.480Z,71.29
2023-03-18T12:01:17.601Z,71.50
2023-03-18T12:03:57.604Z,70.82
2023-03-18T12:06:28.665Z,71.24
2023-03-18T12:09:05.013Z,71.33
2023-03-18T12:11:55.205Z,71.13
2023-03-18T12:14:32.640Z,71.77
2023-03-18T12:17:14.584Z,71.80
2023-03-18T12:20:02.882Z,71.85
2023-03-18T12:22:47.855Z,71.37
2023-03-18T12:25:31.509Z,71.40
2023-03-18T12:28:04.387Z,71.77
2023-03-18T12:30:50.847Z,71.43
2023-03-18T12:33:35.382Z,71.92
2023-03-18T12:36:15.113Z,71.54
2023-03-18T12:39:07.724Z,71.80
2023-03-18T12:41:45.544Z,72.01
2023-03-18T12:44:29.049Z,72.26
2023-03-18T12:47:06.653Z,72.15
2023-03-18T12:49:38.832Z,72.44
2023-03-18T12:52:10.624Z,71.83
2023-03-18T12:54:44.293Z,72.34
2023-03-18T12:57:19.068Z,72.06
2023-03-18T12:59:56.711Z,72.32
2023-03-18T13:02:41.250Z,72.04
2023-03-18T13:05:24.578Z,72.17
2023-03-18T13:08:06.461Z,72.29
2023-03-18T13:10:37.595Z,72.20
2023-03-18T13:13:10.421Z,72.20
2023-03-18T13:15:42.740Z,72.42
2023-03-18T13:18:20.183Z,72.25
2023-03-18T13:20:50.205Z,72.58
2023-03-18T13:23:31.222Z,72.69
2023-03-18T13:26:09.755Z,72.45
2023-03-18T13:28:51.200Z,72.27
2023-03-18T13:31:31.286Z,72.47
2023-03-18T13:34:26.338Z,72.54
2023-03-18T13:37:08.500Z,72.57
2023-03-18T13:39:47.703Z,72.68
2023-03-18T13:42:26.510Z,72.98
2023-03-18T13:45:01.527Z,72.59
2023-03-18T13:47:33.045Z,72.59
2023-03-18T13:50:04.847Z,72.85
2023-03-18T13:52:42.005Z,73.05
2023-03-18T13:55:23.642Z,73.38
2023-03-18T13:57:57.938Z,73.34
2023-03-18T14:00:34.413Z,73.15
2023-03-18T14:03:06.979Z,72.83
2023-03-18T14:05:40.472Z,73.28
2023-03-18T14:08:47.384Z,73.08
2023-03-18T14:11:50.040Z,72.92
2023-03-18T14:15:06.070Z,73.14
2023-03-18T14:17:46.084Z,73.69
2023-03-18T14:20:27.261Z,73.61
2023-03-18T14:23:17.448Z,73.86
2023-03-18T14:25:49.396Z,73.23
2023-03-18T14:28:24.839Z,73.75
2023-03-18T14:31:15.030Z,73.75
2023-03-18T14:33:59.593Z,73.61
2023-03-18T14:36:49.159Z,73.77
2023-03-18T14:39:22.033Z,73.61
2023-03-18T14:41:54.583Z,73.62
2023-03-18T14:44:25.275Z,73.60
2023-03-18T14:46:58.228Z,73.88
2023-03-18T14:49:41.657Z,73.77
2023-03-18T14:52:28.782Z,74.04
2023-03-18T14:55:00.092Z,73.55
2023-03-18T14:57:28.477Z,73.90
2023-03-18T14:59:57.018Z,74.00
2023-03-18T15:02:28.723Z,74.00
2023-03-18T15:04:59.342Z,73.98
2023-03-18T15:07:35.362Z,73.94
2023-03-18T15:10:12.382Z,74.10
2023-03-18T15:12:40.478Z,74.00
2023-03-18T15:15:14.789Z,74.36
2023-03-18T15:17:47.608Z,74.15
2023-03-18T15:20:16.559Z,74.05
2023-03-18T15:22:44.968Z,74.35
2023-03-18T15:25:19.425Z,74.03
2023-03-18T15:27:48.220Z,74.15
2023-03-18T15:30:27.646Z,74.15
2023-03-18T15:33:04.127Z,74.33
2023-03-18T15:35:32.908Z,74.47
2023-03-18T15:38:14.629Z,74.14
2023-03-18T15:40:50.963Z,74.13
2023-03-18T15:43:26.987Z,74.23
2023-03-18T15:45:57.762Z,74.53
2023-03-18T15:48:31.951Z,74.33
2023-03-18T15:51:01.971Z,74.35
2023-03-18T15:53:34.585Z,74.50
2023-03-18T15:56:16.323Z,74.56
2023-03-18T15:58:45.104Z,74.67
2023-03-18T16:01:17.563Z,74.37
2023-03-18T16:03:47.472Z,74.54
2023-03-18T16:06:16.289Z,74.86
2023-03-18T16:08:46.009Z,74.70
2023-03-18T16:11:16.991Z,74.97
2023-03-18T16:13:46.892Z,74.86
2023-03-18T16:16:18.577Z,74.79
2023-03-18T16:18:46.715Z,74.63
2023-03-18T16:21:15.310Z,75.02
2023-03-18T16:23:43.384Z,74.88
2023-03-18T16:26:17.879Z,74.87
2023-03-18T16:28:48.331Z,74.67
2023-03-18T16:31:16.375Z,74.98
2023-03-18T16:33:46.332Z,75.20
2023-03-18T16:36:24.880Z,75.05
2023-03-18T16:38:52.873Z,74.93
2023-03-18T16:41:22.012Z,74.88
2023-03-18T16:43:50.310Z,75.21
2023-03-18T16:46:19.220Z,75.36
2023-03-18T16:48:49.316Z,75.19
2023-03-18T16:51:17.514Z,75.52
2023-03-18T16:53:45.257Z,75.51
2023-03-18T16:56:19.007Z,75.08
2023-03-18T16:58:48.316Z,75.32
2023-03-18T17:01:19.348Z,75.20
2023-03-18T17:03:48.153Z,75.57
2023-03-18T17:06:16.260Z,75.56
2023-03-18T17:08:44.612Z,75.48
2023-03-18T17:11:19.266Z,75.46
2023-03-18T17:13:48.735Z,75.68
2023-03-18T17:16:19.979Z,75.81
2023-03-18T17:18:48.174Z,75.72
2023-03-18T17:21:17.111Z,75.59
2023-03-18T17:23:45.706Z,75.71
2023-03-18T17:26:16.023Z,75.48
2023-03-18T17:28:46.881Z,75.60
2023-03-18T17:31:16.689Z,75.86
2023-03-18T17:33:47.370Z,75.56
2023-03-18T17:36:15.188Z,75.80
2023-03-18T17:38:43.024Z,75.92
2023-03-18T17:41:17.286Z,75.94
2023-03-18T17:43:45.152Z,75.84
2023-03-18T17:46:14.214Z,75.77
2023-03-18T17:48:44.040Z,75.84
2023-03-18T17:51:16.266Z,76.11
2023-03-18T17:53:46.179Z,76.07
2023-03-18T17:56:16.186Z,75.96
2023-03-18T17:58:45.649Z,76.26
2023-03-18T18:01:16.389Z,75.92
2023-03-18T18:03:45.567Z,76.00
2023-03-18T18:06:18.595Z,76.04
2023-03-18T18:08:46.997Z,76.18
2023-03-18T18:11:20.938Z,76.07
2023-03-18T18:13:49.893Z,76.14
2023-03-18T18:16:18.766Z,76.11
2023-03-18T18:18:49.875Z,76.28
2023-03-18T18:21:21.747Z,76.13
2023-03-18T18:23:49.801Z,76.21
2023-03-18T18:26:19.598Z,76.13
2023-03-18T18:28:49.449Z,76.22
2023-03-18T18:31:19.427Z,76.36
2023-03-18T18:33:50.464Z,76.32
2023-03-18T18:36:18.668Z,76.27
2023-03-18T18:38:46.819Z,76.35
2023-03-18T18:41:15.295Z,76.25
2023-03-18T18:43:43.118Z,76.37
2023-03-18T18:46:14.759Z,76.31
2023-03-18T18:48:44.612Z,76.35
2023-03-18T18:51:18.305Z,76.29
2023-03-18T18:53:47.542Z,76.69
2023-03-18T18:56:18.614Z,76.83
2023-03-18T18:58:47.139Z,76.90
2023-03-18T19:01:16.115Z,76.56
2023-03-18T19:03:44.208Z,76.90
2023-03-18T19:06:25.246Z,76.87
2023-03-18T19:08:54.628Z,76.76
2023-03-18T19:11:24.575Z,76.86
2023-03-18T19:13:53.753Z,76.83
2023-03-18T19:16:29.481Z,76.93
2023-03-18T19:18:57.377Z,77.00
2023-03-18T19:21:27.168Z,77.06
2023-03-18T19:23:55.178Z,77.04
2023-03-18T19:26:23.145Z,76.81
2023-03-18T19:29:01.338Z,77.06
2023-03-18T19:31:32.223Z,77.25
2023-03-18T19:34:02.131Z,77.04
2023-03-18T19:36:33.319Z,77.14
2023-03-18T19:39:03.054Z,77.12
2023-03-18T19:41:31.305Z,77.17
2023-03-18T19:44:04.073Z,77.39
2023-03-18T19:46:37.162Z,77.28
2023-03-18T19:49:12.921Z,77.23
2023-03-18T19:51:42.497Z,77.53
2023-03-18T19:54:23.698Z,77.34
2023-03-18T19:56:52.504Z,77.34
2023-03-18T19:59:23.224Z,77.30
2023-03-18T20:01:51.907Z,77.49
2023-03-18T20:04:21.564Z,77.59
2023-03-18T20:06:51.218Z,77.67
2023-03-18T20:09:19.192Z,77.46
2023-03-18T20:11:50.678Z,77.36
2023-03-18T20:14:25.512Z,77.55
2023-03-18T20:16:53.864Z,77.71
2023-03-18T20:19:21.777Z,77.61
2023-03-18T20:21:51.024Z,77.75
2023-03-18T20:24:24.444Z,77.84
2023-03-18T20:26:52.334Z,77.75
2023-03-18T20:29:24.058Z,77.73
2023-03-18T20:31:52.026Z,77.96
2023-03-18T20:34:19.921Z,77.76
2023-03-18T20:36:47.785Z,77.82
2023-03-18T20:39:21.623Z,77.93
2023-03-18T20:41:50.541Z,77.96
2023-03-18T20:44:18.307Z,77.79
2023-03-18T20:46:46.193Z,77.77
2023-03-18T20:49:14.139Z,77.87
2023-03-18T20:51:42.520Z,77.96
2023-03-18T20:54:19.740Z,77.84
2023-03-18T20:56:48.026Z,78.09
2023-03-18T20:59:16.070Z,78.20
2023-03-18T21:01:44.353Z,78.13
2023-03-18T21:04:13.869Z,78.07
2023-03-18T21:06:42.238Z,78.13
2023-03-18T21:09:12.310Z,78.27
2023-03-18T21:11:41.724Z,78.02
2023-03-18T21:14:15.711Z,78.22
2023-03-18T21:16:43.663Z,78.21
2023-03-18T21:19:12.608Z,78.36
2023-03-18T21:21:41.207Z,78.39
2023-03-18T21:24:23.649Z,78.02
2023-03-18T21:27:03.710Z,78.36
2023-03-18T21:29:32.356Z,78.46
2023-03-18T21:32:02.520Z,78.37
2023-03-18T21:34:30.509Z,78.29
2023-03-18T21:36:58.479Z,78.47
2023-03-18T21:39:26.415Z,78.44
2023-03-18T21:41:55.656Z,78.37
2023-03-18T21:44:23.410Z,78.51
2023-03-18T21:46:51.107Z,78.50
2023-03-18T21:49:18.946Z,78.68
2023-03-18T21:51:46.736Z,78.68
2023-03-18T21:54:18.752Z,78.56
2023-03-18T21:56:46.626Z,78.43
2023-03-18T21:59:15.960Z,78.64
2023-03-18T22:01:43.868Z,78.71
2023-03-18T22:04:12.515Z,78.71
2023-03-18T22:06:40.316Z,78.67
2023-03-18T22:09:08.722Z,78.59
2023-03-18T22:11:36.547Z,78.52
2023-03-18T22:14:04.286Z,78.81
2023-03-18T22:16:33.400Z,78.81
2023-03-18T22:19:01.449Z,78.83
2023-03-18T22:21:29.421Z,78.90
2023-03-18T22:23:58.239Z,78.89
2023-03-18T22:26:26.130Z,78.92
2023-03-18T22:28:53.964Z,78.92
2023-03-18T22:31:24.444Z,78.91
2023-03-18T22:33:54.497Z,78.97
2023-03-18T22:36:23.767Z,79.05
2023-03-18T22:38:51.826Z,79.05
2023-03-18T22:41:22.057Z,79.18
2023-03-18T22:43:50.489Z,78.98
2023-03-18T22:46:19.096Z,79.22
2023-03-18T22:48:47.040Z,78.98
2023-03-18T22:51:23.551Z,79.25
2023-03-18T22:53:53.631Z,79.50
2023-03-18T22:56:22.750Z,79.13
2023-03-18T22:58:51.352Z,79.22
2023-03-18T23:01:21.691Z,79.25
2023-03-18T23:03:50.546Z,79.25
2023-03-18T23:06:23.702Z,79.43
2023-03-18T23:08:51.635Z,79.27
2023-03-18T23:11:19.819Z,79.18
2023-03-18T23:13:49.886Z,79.35
2023-03-18T23:16:21.037Z,79.51
2023-03-18T23:18:49.371Z,79.38
2023-03-18T23:21:21.168Z,79.32
2023-03-18T23:23:49.232Z,79.47
2023-03-18T23:26:17.876Z,79.68
2023-03-18T23:28:46.083Z,79.52
2023-03-18T23:31:14.995Z,79.44
2023-03-18T23:33:43.354Z,79.38
2023-03-18T23:36:12.256Z,79.59
2023-03-18T23:38:41.848Z,79.52
2023-03-18T23:41:10.171Z,79.48
2023-03-18T23:43:38.028Z,79.72
2023-03-18T23:46:07.463Z,79.81
2023-03-18T23:48:35.824Z,79.60
2023-03-18T23:51:03.556Z,79.63
2023-03-18T23:53:31.407Z,79.54
2023-03-18T23:56:00.659Z,79.72
2023-03-18T23:58:28.496Z,79.71
